Accueil
METAR-TAF:

METAR-TAF

Aéroports :

Mendoza, Argentine

latitude: 32-50S, longitude: 068-47W, altitude: 705 m

Observation

Le bulletin a été fait il y a 1 heure et 3 minutes, à 18:00 UTC
Vent 7 kt de sud-est
Température 19°C
Humidité 56%
Pression 1016 hPa
Visibilité 10 km ou plus
Quelques nuages à une hauteur de 4000 ft
Nuages fragmentés à une hauteur de 4500 ft

METAR: SAME 221800Z 14007KT 9999 FEW040 BKN045 19/10 Q1016

Heure: 16:03 (19:03 UTC)

Prévision

Le bulletin a été fait il y a 2 heures et 3 minutes, à 17:00 UTC
Prévision valable du 22 à 18 UTC au 23 à 18 UTC
Vent 10 kt de sud/sud-est
Visibilité 10 km ou plus
Nuages fragmentés à une hauteur de 4000 ft
Temporairement
du 23 à 00 UTC au 23 à 06 UTC
Vent 5 kt de sud/sud-est
Visibilité: 5000 m
Ciel couvert à une hauteur de 3000 ft
bruine

TAF: SAME 221700Z 2218/2318 16010KT 9999 BKN040 TX22/2220Z TN10/2310Z TEMPO 2300/2306 16005KT 5000 DZ OVC030

Observations et prévisions météorologiques de plus de 4000 aéroports (messages METAR et TAF).

Les stations disponibles sont représentées par des disques jaunes et rouges sur la carte.

Passer la souris dessus pour voir le nom de la station.

Cliquer dessus pour voir les observations et prévisions météorologiques.

Pour changer de carte: cliquez sur les boutons verts avec une croix noire pour zoomer, sur le bouton vert avec un tiret pour effectuer un zoom arrière, ou sur les flèches vertes pour les cartes adjacentes.


METAR-TAF: